createdAt,value
2018-12-16T00:01:42.652Z,0.70
2018-12-16T00:04:09.782Z,0.70
2018-12-16T00:06:36.918Z,0.70
2018-12-16T00:09:05.585Z,0.60
2018-12-16T00:11:32.821Z,0.60
2018-12-16T00:13:59.936Z,0.60
2018-12-16T00:16:27.101Z,0.50
2018-12-16T00:18:54.282Z,0.50
2018-12-16T00:21:21.428Z,0.60
2018-12-16T00:23:48.759Z,0.70
2018-12-16T00:26:15.998Z,0.80
2018-12-16T00:28:43.250Z,0.70
2018-12-16T00:31:10.360Z,0.80
2018-12-16T00:33:37.530Z,0.80
2018-12-16T00:36:04.885Z,0.80
2018-12-16T00:38:32.071Z,0.70
2018-12-16T00:40:59.190Z,0.60
2018-12-16T00:43:26.315Z,0.60
2018-12-16T00:45:53.554Z,0.70
2018-12-16T00:48:20.914Z,0.70
2018-12-16T00:50:48.071Z,0.80
2018-12-16T00:53:15.211Z,0.70
2018-12-16T00:55:42.453Z,0.50
2018-12-16T00:58:09.592Z,0.50
2018-12-16T01:00:36.820Z,0.50
2018-12-16T01:03:04.364Z,0.50
2018-12-16T01:05:31.515Z,0.50
2018-12-16T01:07:58.625Z,0.40
2018-12-16T01:10:26.032Z,0.40
2018-12-16T01:12:53.146Z,0.30
2018-12-16T01:15:20.419Z,0.40
2018-12-16T01:17:47.538Z,0.40
2018-12-16T01:20:14.787Z,0.40
2018-12-16T01:22:43.638Z,0.40
2018-12-16T01:25:11.227Z,0.50
2018-12-16T01:27:38.366Z,0.50
2018-12-16T01:30:05.745Z,0.60
2018-12-16T01:32:33.020Z,0.50
2018-12-16T01:35:00.199Z,0.50
2018-12-16T01:37:27.439Z,0.50
2018-12-16T01:39:54.695Z,0.50
2018-12-16T01:42:21.904Z,0.40
2018-12-16T01:44:49.038Z,0.50
2018-12-16T01:47:16.169Z,0.50
2018-12-16T01:49:43.280Z,0.50
2018-12-16T01:52:10.405Z,0.40
2018-12-16T01:54:37.623Z,0.50
2018-12-16T01:57:04.738Z,0.50
2018-12-16T01:59:31.854Z,0.50
2018-12-16T02:01:58.989Z,0.60
2018-12-16T02:04:26.109Z,0.50
2018-12-16T02:06:53.228Z,0.50
2018-12-16T02:09:20.658Z,0.50
2018-12-16T02:11:47.931Z,0.60
2018-12-16T02:14:15.052Z,0.50
2018-12-16T02:16:42.212Z,0.50
2018-12-16T02:19:09.437Z,0.50
2018-12-16T02:21:36.807Z,0.50
2018-12-16T02:24:04.042Z,0.40
2018-12-16T02:26:31.294Z,0.40
2018-12-16T02:28:58.411Z,0.40
2018-12-16T02:31:25.677Z,0.50
2018-12-16T02:33:53.467Z,0.50
2018-12-16T02:36:20.727Z,0.50
2018-12-16T02:38:47.849Z,0.50
2018-12-16T02:41:14.969Z,0.50
2018-12-16T02:43:42.185Z,0.50
2018-12-16T02:46:09.307Z,0.50
2018-12-16T02:48:36.531Z,0.60
2018-12-16T02:51:04.389Z,0.60
2018-12-16T02:53:31.501Z,0.60
2018-12-16T02:55:58.693Z,0.70
2018-12-16T02:58:25.922Z,0.60
2018-12-16T03:00:53.364Z,0.70
2018-12-16T03:03:20.507Z,0.70
2018-12-16T03:05:48.023Z,0.70
2018-12-16T03:08:15.173Z,0.70
2018-12-16T03:10:42.406Z,0.80
2018-12-16T03:13:09.667Z,0.70
2018-12-16T03:18:11.010Z,0.70
2018-12-16T03:20:38.271Z,0.70
2018-12-16T03:23:11.978Z,0.80
2018-12-16T03:25:34.606Z,0.70
2018-12-16T03:28:01.839Z,0.70
2018-12-16T03:30:29.126Z,0.70
2018-12-16T03:32:56.406Z,0.70
2018-12-16T03:35:23.653Z,0.70
2018-12-16T03:37:50.910Z,0.80
2018-12-16T03:40:18.050Z,0.90
2018-12-16T03:42:45.321Z,1.10
2018-12-16T03:45:12.658Z,0.90
2018-12-16T03:50:14.071Z,0.80
2018-12-16T03:52:41.198Z,0.60
2018-12-16T03:55:08.314Z,0.60
2018-12-16T03:57:35.434Z,0.60
2018-12-16T04:00:02.819Z,0.50
2018-12-16T04:02:29.950Z,0.40
2018-12-16T04:04:57.070Z,0.40
2018-12-16T04:07:24.205Z,0.50
2018-12-16T04:09:51.335Z,0.40
2018-12-16T04:12:18.694Z,0.30
2018-12-16T04:14:46.034Z,0.10
2018-12-16T04:17:13.175Z,0.10
2018-12-16T04:19:40.309Z,0.00
2018-12-16T04:22:07.625Z,-0.10
2018-12-16T04:24:34.737Z,0.00
2018-12-16T04:27:01.869Z,0.00
2018-12-16T04:29:35.911Z,-0.10
2018-12-16T04:32:03.045Z,0.00
2018-12-16T04:34:30.283Z,0.00
2018-12-16T04:36:57.654Z,0.00
2018-12-16T04:39:24.782Z,0.00
2018-12-16T04:41:52.385Z,0.10
2018-12-16T04:44:19.533Z,0.10
2018-12-16T04:46:46.646Z,0.10
2018-12-16T04:49:13.788Z,0.00
2018-12-16T04:51:41.003Z,-0.10
2018-12-16T04:54:08.255Z,-0.10
2018-12-16T04:56:35.361Z,-0.20
2018-12-16T04:59:02.717Z,-0.20
2018-12-16T05:01:29.843Z,-0.10
2018-12-16T05:03:57.089Z,-0.20
2018-12-16T05:06:24.405Z,-0.20
2018-12-16T05:08:51.646Z,-0.30
2018-12-16T05:11:18.821Z,-0.30
2018-12-16T05:13:45.995Z,-0.30
2018-12-16T05:16:13.151Z,-0.30
2018-12-16T05:18:40.355Z,-0.30
2018-12-16T05:21:07.471Z,-0.20
2018-12-16T05:23:34.666Z,-0.20
2018-12-16T05:26:01.781Z,-0.20
2018-12-16T05:28:28.906Z,-0.10
2018-12-16T05:30:56.046Z,-0.10
2018-12-16T05:33:23.252Z,-0.10
2018-12-16T05:35:50.491Z,-0.20
2018-12-16T05:38:17.733Z,-0.20
2018-12-16T05:40:44.851Z,-0.20
2018-12-16T05:43:12.095Z,-0.20
2018-12-16T05:45:39.342Z,-0.20
2018-12-16T05:48:06.474Z,-0.20
2018-12-16T05:50:33.589Z,-0.30
2018-12-16T05:53:00.750Z,-0.30
2018-12-16T05:55:27.960Z,-0.20
2018-12-16T05:57:55.203Z,-0.10
2018-12-16T06:00:22.445Z,-0.10
2018-12-16T06:02:49.578Z,-0.10
2018-12-16T06:05:16.771Z,-0.10
2018-12-16T06:07:44.021Z,-0.10
2018-12-16T06:10:11.159Z,-0.20
2018-12-16T06:12:38.306Z,-0.30
2018-12-16T06:15:05.744Z,-0.20
2018-12-16T06:17:32.890Z,-0.30
2018-12-16T06:20:00.031Z,-0.30
2018-12-16T06:22:27.189Z,-0.30
2018-12-16T06:24:54.436Z,-0.30
2018-12-16T06:27:21.571Z,-0.40
2018-12-16T06:29:49.024Z,-0.30
2018-12-16T06:32:16.144Z,-0.40
2018-12-16T06:34:43.417Z,-0.40
2018-12-16T06:37:10.546Z,-0.40
2018-12-16T06:39:37.667Z,-0.30
2018-12-16T06:42:04.897Z,-0.30
2018-12-16T06:44:32.129Z,-0.30
2018-12-16T06:46:59.302Z,-0.10
2018-12-16T06:49:26.502Z,-0.20
2018-12-16T06:51:53.781Z,-0.30
2018-12-16T06:54:20.922Z,-0.30
2018-12-16T06:56:48.036Z,-0.30
2018-12-16T06:59:15.168Z,-0.30
2018-12-16T07:01:42.645Z,-0.30
2018-12-16T07:04:09.775Z,-0.20
2018-12-16T07:06:36.903Z,-0.20
2018-12-16T07:09:05.976Z,-0.20
2018-12-16T07:11:33.265Z,-0.20
2018-12-16T07:14:00.566Z,-0.20
2018-12-16T07:16:27.750Z,-0.10
2018-12-16T07:18:54.907Z,0.00
2018-12-16T07:21:22.280Z,-0.10
2018-12-16T07:23:49.539Z,-0.10
2018-12-16T07:26:17.053Z,-0.10
2018-12-16T07:28:45.341Z,0.10
2018-12-16T07:31:12.738Z,0.10
2018-12-16T07:33:39.969Z,0.20
2018-12-16T07:36:07.310Z,0.20
2018-12-16T07:38:34.647Z,0.20
2018-12-16T07:41:02.047Z,0.20
2018-12-16T07:43:29.166Z,0.10
2018-12-16T07:45:56.345Z,0.00
2018-12-16T07:48:23.606Z,0.00
2018-12-16T07:50:50.966Z,0.00
2018-12-16T07:53:18.284Z,0.00
2018-12-16T07:55:45.450Z,0.00
2018-12-16T07:58:12.580Z,0.00
2018-12-16T08:00:39.772Z,0.00
2018-12-16T08:03:06.990Z,0.00
2018-12-16T08:05:34.161Z,0.00
2018-12-16T08:08:01.397Z,0.10
2018-12-16T08:10:28.681Z,0.10
2018-12-16T08:12:55.898Z,0.00
2018-12-16T08:15:24.074Z,0.00
2018-12-16T08:17:51.313Z,0.00
2018-12-16T08:20:18.720Z,0.00
2018-12-16T08:22:45.864Z,0.10
2018-12-16T08:25:13.035Z,0.10
2018-12-16T08:27:40.240Z,0.10
2018-12-16T08:30:08.200Z,0.20
2018-12-16T08:32:35.474Z,0.10
2018-12-16T08:35:03.334Z,0.20
2018-12-16T08:37:30.460Z,0.30
2018-12-16T08:39:57.806Z,0.30
2018-12-16T08:42:24.933Z,0.30
2018-12-16T08:44:52.183Z,0.20
2018-12-16T08:47:19.406Z,0.30
2018-12-16T08:49:46.543Z,0.30
2018-12-16T08:52:13.644Z,0.30
2018-12-16T08:54:41.893Z,0.30
2018-12-16T08:57:09.008Z,0.20
2018-12-16T08:59:36.148Z,0.20
2018-12-16T09:02:03.445Z,0.30
2018-12-16T09:04:31.581Z,0.30
2018-12-16T09:06:59.068Z,0.30
2018-12-16T09:09:26.638Z,0.20
2018-12-16T09:11:53.890Z,0.20
2018-12-16T09:14:21.097Z,0.20
2018-12-16T09:16:48.290Z,0.20
2018-12-16T09:19:15.605Z,0.20
2018-12-16T09:21:42.724Z,0.20
2018-12-16T09:24:09.836Z,0.20
2018-12-16T09:26:37.005Z,0.20
2018-12-16T09:29:04.189Z,0.30
2018-12-16T09:31:31.449Z,0.30
2018-12-16T09:33:58.678Z,0.30
2018-12-16T09:36:25.809Z,0.30
2018-12-16T09:38:53.057Z,0.30
2018-12-16T09:41:20.283Z,0.40
2018-12-16T09:43:47.456Z,0.40
2018-12-16T09:46:14.585Z,0.40
2018-12-16T09:48:41.694Z,0.40
2018-12-16T09:51:08.882Z,0.40
2018-12-16T09:53:36.034Z,0.50
2018-12-16T09:56:03.409Z,0.50
2018-12-16T09:58:37.173Z,0.50
2018-12-16T10:01:04.473Z,0.50
2018-12-16T10:03:31.714Z,0.50
2018-12-16T10:05:59.107Z,0.50
2018-12-16T10:08:26.212Z,0.60
2018-12-16T10:10:53.347Z,0.60
2018-12-16T10:13:20.460Z,0.60
2018-12-16T10:15:47.615Z,0.60
2018-12-16T10:18:14.766Z,0.50
2018-12-16T10:20:42.037Z,0.60
2018-12-16T10:23:09.160Z,0.60
2018-12-16T10:25:36.361Z,0.50
2018-12-16T10:28:03.482Z,0.60
2018-12-16T10:30:30.658Z,0.70
2018-12-16T10:32:57.764Z,0.70
2018-12-16T10:35:24.972Z,0.80
2018-12-16T10:37:52.239Z,0.80
2018-12-16T10:40:19.356Z,0.80
2018-12-16T10:42:46.654Z,0.90
2018-12-16T10:45:13.911Z,0.90
2018-12-16T10:47:41.042Z,0.90
2018-12-16T10:50:08.278Z,0.90
2018-12-16T10:52:35.389Z,0.90
2018-12-16T10:55:03.203Z,0.90
2018-12-16T10:57:30.554Z,0.80
2018-12-16T10:59:57.677Z,0.90
2018-12-16T11:02:25.035Z,0.80
2018-12-16T11:04:52.390Z,0.80
2018-12-16T11:07:19.543Z,0.90
2018-12-16T11:09:46.795Z,0.90
2018-12-16T11:12:14.485Z,0.90
2018-12-16T11:14:41.614Z,0.90
2018-12-16T11:17:09.054Z,0.90
2018-12-16T11:19:36.555Z,0.90
2018-12-16T11:22:03.997Z,1.00
2018-12-16T11:24:31.104Z,1.00
2018-12-16T11:26:58.376Z,0.90
2018-12-16T11:29:25.841Z,1.00
2018-12-16T11:31:53.085Z,1.00
2018-12-16T11:34:20.198Z,1.00
2018-12-16T11:36:47.372Z,0.90
2018-12-16T11:39:14.894Z,0.90
2018-12-16T11:41:45.145Z,1.00
2018-12-16T11:44:17.900Z,1.00
2018-12-16T11:46:49.388Z,0.90
2018-12-16T11:49:18.751Z,0.90
2018-12-16T11:51:46.130Z,0.90
2018-12-16T11:54:17.620Z,0.90
2018-12-16T11:56:44.867Z,1.00
2018-12-16T11:59:11.979Z,1.00
2018-12-16T12:01:39.235Z,1.00
2018-12-16T12:04:06.435Z,0.90
2018-12-16T12:06:34.478Z,0.90
2018-12-16T12:09:01.634Z,0.90
2018-12-16T12:14:05.239Z,0.90
2018-12-16T12:16:34.923Z,1.00
2018-12-16T12:19:02.277Z,1.00
2018-12-16T12:21:29.510Z,1.00
2018-12-16T12:23:56.739Z,1.20
2018-12-16T12:26:24.082Z,1.20
2018-12-16T12:28:51.411Z,1.20
2018-12-16T12:31:18.698Z,1.20
2018-12-16T12:33:45.850Z,1.30
2018-12-16T12:36:13.142Z,1.30
2018-12-16T12:38:40.395Z,1.40
2018-12-16T12:41:07.570Z,1.40
2018-12-16T12:43:34.717Z,1.40
2018-12-16T12:46:01.870Z,1.50
2018-12-16T12:48:30.406Z,1.40
2018-12-16T12:50:57.750Z,1.50
2018-12-16T12:53:24.895Z,1.50
2018-12-16T12:55:52.150Z,1.50
2018-12-16T12:58:19.331Z,1.50
2018-12-16T13:00:46.548Z,1.40
2018-12-16T13:03:13.810Z,1.40
2018-12-16T13:05:41.217Z,1.50
2018-12-16T13:08:08.394Z,1.50
2018-12-16T13:10:35.626Z,1.50
2018-12-16T13:13:03.045Z,1.50
2018-12-16T13:15:30.201Z,1.50
2018-12-16T13:17:57.468Z,1.60
2018-12-16T13:20:24.718Z,1.60
2018-12-16T13:22:51.846Z,1.60
2018-12-16T13:26:30.978Z,1.60
2018-12-16T13:28:58.110Z,1.60
2018-12-16T13:31:25.392Z,1.50
2018-12-16T13:33:52.627Z,1.50
2018-12-16T13:36:19.795Z,1.50
2018-12-16T13:38:47.054Z,1.50
2018-12-16T13:41:14.187Z,1.40
2018-12-16T13:43:41.321Z,1.40
2018-12-16T13:46:08.514Z,1.30
2018-12-16T13:48:42.931Z,1.30
2018-12-16T13:51:10.186Z,1.30
2018-12-16T13:53:37.333Z,1.30
2018-12-16T13:56:04.670Z,1.40
2018-12-16T13:58:32.771Z,1.30
2018-12-16T14:01:00.094Z,1.20
2018-12-16T14:03:27.323Z,1.20
2018-12-16T14:05:54.751Z,1.20
2018-12-16T14:08:22.019Z,1.30
2018-12-16T14:10:49.272Z,1.40
2018-12-16T14:13:16.498Z,1.40
2018-12-16T14:15:43.666Z,1.50
2018-12-16T14:18:10.849Z,1.40
2018-12-16T14:20:37.980Z,1.40
2018-12-16T14:23:05.339Z,1.40
2018-12-16T14:25:32.599Z,1.40
2018-12-16T14:28:00.085Z,1.40
2018-12-16T14:30:27.208Z,1.30
2018-12-16T14:32:54.328Z,1.30
2018-12-16T14:35:21.762Z,1.30
2018-12-16T14:37:49.033Z,1.20
2018-12-16T14:40:16.413Z,1.20
2018-12-16T14:42:43.830Z,1.20
2018-12-16T14:45:11.060Z,1.30
2018-12-16T14:47:38.219Z,1.20
2018-12-16T14:50:08.090Z,1.30
2018-12-16T14:52:35.212Z,1.30
2018-12-16T14:55:02.971Z,1.30
2018-12-16T14:57:30.126Z,1.40
2018-12-16T14:59:57.245Z,1.40
2018-12-16T15:02:24.625Z,1.40
2018-12-16T15:04:51.969Z,1.40
2018-12-16T15:07:19.497Z,1.50
2018-12-16T15:09:46.755Z,1.40
2018-12-16T15:12:16.205Z,1.40
2018-12-16T15:14:43.634Z,1.40
2018-12-16T15:17:11.011Z,1.40
2018-12-16T15:19:38.225Z,1.50
2018-12-16T15:22:05.577Z,1.50
2018-12-16T15:24:32.685Z,1.50
2018-12-16T15:26:59.823Z,1.60
2018-12-16T15:29:26.967Z,1.50
2018-12-16T15:31:54.172Z,1.60
2018-12-16T15:34:21.295Z,1.60
2018-12-16T15:36:48.420Z,1.70
2018-12-16T15:39:15.594Z,1.70
2018-12-16T15:41:42.726Z,1.70
2018-12-16T15:44:09.934Z,1.70
2018-12-16T15:46:37.110Z,1.70
2018-12-16T15:49:04.491Z,1.60
2018-12-16T15:51:31.744Z,1.50
2018-12-16T15:53:58.900Z,1.60
2018-12-16T15:56:26.159Z,1.60
2018-12-16T15:58:53.342Z,1.60
2018-12-16T16:01:20.698Z,1.50
2018-12-16T16:03:47.947Z,1.50
2018-12-16T16:06:15.885Z,1.40
2018-12-16T16:08:43.031Z,1.40
2018-12-16T16:11:10.188Z,1.40
2018-12-16T16:13:37.462Z,1.40
2018-12-16T16:16:04.763Z,1.40
2018-12-16T16:18:31.902Z,1.40
2018-12-16T16:21:00.169Z,1.40
2018-12-16T16:23:27.421Z,1.50
2018-12-16T16:25:54.729Z,1.50
2018-12-16T16:28:21.848Z,1.60
2018-12-16T16:30:49.129Z,1.60
2018-12-16T16:33:16.411Z,1.60
2018-12-16T16:35:43.813Z,1.80
2018-12-16T16:38:11.651Z,1.90
2018-12-16T16:40:39.174Z,1.90
2018-12-16T16:43:06.297Z,1.80
2018-12-16T16:45:33.440Z,1.70
2018-12-16T16:48:00.805Z,1.80
2018-12-16T16:50:27.939Z,1.90
2018-12-16T16:52:55.459Z,1.90
2018-12-16T16:55:22.716Z,1.80
2018-12-16T16:57:50.046Z,1.80
2018-12-16T17:00:17.328Z,1.70
2018-12-16T17:02:44.761Z,1.70
2018-12-16T17:05:12.006Z,1.70
2018-12-16T17:07:39.391Z,1.80
2018-12-16T17:10:07.281Z,1.80
2018-12-16T17:12:34.635Z,1.90
2018-12-16T17:15:02.206Z,2.00
2018-12-16T17:17:29.341Z,1.90
2018-12-16T17:19:56.468Z,1.90
2018-12-16T17:22:23.620Z,1.90
2018-12-16T17:24:50.773Z,1.90
2018-12-16T17:27:18.113Z,1.80
2018-12-16T17:29:45.393Z,1.80
2018-12-16T17:32:12.602Z,1.70
2018-12-16T17:34:39.849Z,1.80
2018-12-16T17:37:07.448Z,1.90
2018-12-16T17:39:36.140Z,2.00
2018-12-16T17:42:04.347Z,2.20
2018-12-16T17:44:31.724Z,2.20
2018-12-16T17:46:59.010Z,2.20
2018-12-16T17:49:27.228Z,2.10
2018-12-16T17:51:55.081Z,2.00
2018-12-16T17:54:22.293Z,1.90
2018-12-16T17:56:49.788Z,1.90
2018-12-16T17:59:17.973Z,1.90
2018-12-16T18:01:45.847Z,1.90
2018-12-16T18:04:13.410Z,1.90
2018-12-16T18:06:40.779Z,2.00
2018-12-16T18:09:08.922Z,1.90
2018-12-16T18:11:36.674Z,1.90
2018-12-16T18:14:04.271Z,1.90
2018-12-16T18:16:31.675Z,1.90
2018-12-16T18:18:59.154Z,1.90
2018-12-16T18:21:26.285Z,1.90
2018-12-16T18:23:53.414Z,1.90
2018-12-16T18:26:20.591Z,1.90
2018-12-16T18:28:47.774Z,1.90
2018-12-16T18:31:14.892Z,1.90
2018-12-16T18:33:42.149Z,1.90
2018-12-16T18:36:09.334Z,2.00
2018-12-16T18:38:36.459Z,2.00
2018-12-16T18:41:03.881Z,2.00
2018-12-16T18:43:31.036Z,2.10
2018-12-16T18:45:58.412Z,2.00
2018-12-16T18:48:25.541Z,2.00
2018-12-16T18:50:52.779Z,2.10
2018-12-16T18:53:20.157Z,2.10
2018-12-16T18:55:47.404Z,2.20
2018-12-16T18:58:14.548Z,2.30
2018-12-16T19:00:41.935Z,2.30
2018-12-16T19:03:09.170Z,2.30
2018-12-16T19:05:36.438Z,2.30
2018-12-16T19:08:03.590Z,2.30
2018-12-16T19:10:30.731Z,2.30
2018-12-16T19:12:57.980Z,2.30
2018-12-16T19:15:25.618Z,2.20
2018-12-16T19:17:52.883Z,2.30
2018-12-16T19:20:20.130Z,2.40
2018-12-16T19:22:47.307Z,2.40
2018-12-16T19:25:15.046Z,2.40
2018-12-16T19:27:42.180Z,2.30
2018-12-16T19:30:09.454Z,2.30
2018-12-16T19:32:36.776Z,2.30
2018-12-16T19:35:05.565Z,2.40
2018-12-16T19:37:32.818Z,2.20
2018-12-16T19:39:59.977Z,2.10
2018-12-16T19:42:27.326Z,2.10
2018-12-16T19:44:54.474Z,2.10
2018-12-16T19:47:21.727Z,2.10
2018-12-16T19:49:49.038Z,2.00
2018-12-16T19:52:16.489Z,2.10
2018-12-16T19:54:50.641Z,2.30
2018-12-16T19:57:18.283Z,2.20
2018-12-16T19:59:45.498Z,2.10
2018-12-16T20:02:12.704Z,2.10
2018-12-16T20:04:43.915Z,2.20
2018-12-16T20:07:11.053Z,2.30
2018-12-16T20:09:38.697Z,2.20
2018-12-16T20:12:05.843Z,2.10
2018-12-16T20:14:32.981Z,2.10
2018-12-16T20:17:00.117Z,2.20
2018-12-16T20:19:27.494Z,2.10
2018-12-16T20:21:54.863Z,2.00
2018-12-16T20:24:21.999Z,2.10
2018-12-16T20:26:49.149Z,2.10
2018-12-16T20:29:16.313Z,2.00
2018-12-16T20:31:43.595Z,2.10
2018-12-16T20:34:10.797Z,2.00
2018-12-16T20:36:38.608Z,2.00
2018-12-16T20:39:06.766Z,2.10
2018-12-16T20:41:33.934Z,2.10
2018-12-16T20:44:02.742Z,2.20
2018-12-16T20:46:30.038Z,2.20
2018-12-16T20:48:57.163Z,2.10
2018-12-16T20:51:24.330Z,2.00
2018-12-16T20:53:52.573Z,2.10
2018-12-16T20:56:19.710Z,2.10
2018-12-16T20:58:46.833Z,2.10
2018-12-16T21:01:15.133Z,2.10
2018-12-16T21:03:42.369Z,2.10
2018-12-16T21:06:09.662Z,2.20
2018-12-16T21:08:36.760Z,2.20
2018-12-16T21:11:09.937Z,2.20
2018-12-16T21:13:43.101Z,2.20
2018-12-16T21:16:16.250Z,2.30
2018-12-16T21:18:43.632Z,2.20
2018-12-16T21:21:10.919Z,2.20
2018-12-16T21:23:38.051Z,2.10
2018-12-16T21:26:05.302Z,2.10
2018-12-16T21:28:32.489Z,2.10
2018-12-16T21:30:59.899Z,2.10
2018-12-16T21:33:27.063Z,2.20
2018-12-16T21:35:54.284Z,2.20
2018-12-16T21:38:21.389Z,2.20
2018-12-16T21:40:48.520Z,2.10
2018-12-16T21:43:15.770Z,2.10
2018-12-16T21:45:42.937Z,2.30
2018-12-16T21:48:10.076Z,2.30
2018-12-16T21:50:37.257Z,2.20
2018-12-16T21:53:04.597Z,2.10
2018-12-16T21:55:32.015Z,2.30
2018-12-16T21:57:59.513Z,2.30
2018-12-16T22:00:26.784Z,2.30
2018-12-16T22:02:56.323Z,2.20
2018-12-16T22:05:29.326Z,2.20
2018-12-16T22:07:59.657Z,2.30
2018-12-16T22:10:26.951Z,2.30
2018-12-16T22:12:54.111Z,2.30
2018-12-16T22:15:21.510Z,2.30
2018-12-16T22:17:48.643Z,2.30
2018-12-16T22:20:15.811Z,2.20
2018-12-16T22:22:43.004Z,2.20
2018-12-16T22:25:10.269Z,2.20
2018-12-16T22:27:40.283Z,2.30
2018-12-16T22:30:06.762Z,2.20
2018-12-16T22:32:34.094Z,2.30
2018-12-16T22:35:01.334Z,2.40
2018-12-16T22:37:28.788Z,2.40
2018-12-16T22:39:56.099Z,2.40
2018-12-16T22:42:23.276Z,2.40
2018-12-16T22:44:50.431Z,2.30
2018-12-16T22:47:17.579Z,2.30
2018-12-16T22:49:44.742Z,2.30
2018-12-16T22:52:11.922Z,2.30
2018-12-16T22:54:39.161Z,2.40
2018-12-16T22:57:06.311Z,2.40
2018-12-16T22:59:33.452Z,2.50
2018-12-16T23:02:00.584Z,2.40
2018-12-16T23:04:27.702Z,2.40
2018-12-16T23:06:54.957Z,2.40
2018-12-16T23:09:22.025Z,2.50
2018-12-16T23:11:49.257Z,2.50
2018-12-16T23:14:16.400Z,2.60
2018-12-16T23:16:44.632Z,2.50
2018-12-16T23:19:11.891Z,2.50
2018-12-16T23:21:39.013Z,2.50
2018-12-16T23:24:06.155Z,2.40
2018-12-16T23:26:33.281Z,2.40
2018-12-16T23:29:00.470Z,2.30
2018-12-16T23:31:27.596Z,2.20
2018-12-16T23:33:54.849Z,2.20
2018-12-16T23:36:21.970Z,2.30
2018-12-16T23:38:49.137Z,2.30
2018-12-16T23:41:16.282Z,2.30
2018-12-16T23:43:43.444Z,2.40
2018-12-16T23:46:10.645Z,2.30
2018-12-16T23:48:37.821Z,2.20
2018-12-16T23:51:04.957Z,2.20
2018-12-16T23:56:05.946Z,2.30
2018-12-16T23:58:33.137Z,2.40
